createdAt,value
2023-03-29T00:02:32.994Z,-2.10
2023-03-29T00:05:04.073Z,-2.10
2023-03-29T00:07:33.413Z,-2.09
2023-03-29T00:10:01.390Z,-2.00
2023-03-29T00:12:28.573Z,-2.33
2023-03-29T00:14:55.346Z,-2.34
2023-03-29T00:17:22.059Z,-2.19
2023-03-29T00:19:49.192Z,-2.09
2023-03-29T00:22:15.977Z,-2.12
2023-03-29T00:24:42.652Z,-2.14
2023-03-29T00:27:09.348Z,-2.05
2023-03-29T00:29:36.041Z,-2.12
2023-03-29T00:32:02.659Z,-2.23
2023-03-29T00:34:31.957Z,-2.20
2023-03-29T00:36:58.826Z,-2.19
2023-03-29T00:39:26.416Z,-2.16
2023-03-29T00:41:53.215Z,-2.21
2023-03-29T00:44:55.470Z,-2.03
2023-03-29T00:47:42.263Z,-2.38
2023-03-29T00:50:12.476Z,-2.42
2023-03-29T00:52:39.580Z,-2.47
2023-03-29T00:55:10.163Z,-2.26
2023-03-29T00:57:37.422Z,-2.06
2023-03-29T01:00:05.167Z,-2.08
2023-03-29T01:02:34.529Z,-2.22
2023-03-29T01:05:07.188Z,-2.31
2023-03-29T01:07:48.174Z,-2.26
2023-03-29T01:10:27.309Z,-2.40
2023-03-29T01:12:56.715Z,-2.41
2023-03-29T01:15:25.348Z,-2.40
2023-03-29T01:17:53.907Z,-2.24
2023-03-29T01:20:43.776Z,-2.19
2023-03-29T01:23:44.044Z,-2.48
2023-03-29T01:26:27.154Z,-2.56
2023-03-29T01:29:14.347Z,-2.66
2023-03-29T01:31:44.492Z,-2.48
2023-03-29T01:34:14.731Z,-2.71
2023-03-29T01:36:54.798Z,-2.62
2023-03-29T01:39:22.099Z,-2.57
2023-03-29T01:42:23.901Z,-2.23
2023-03-29T01:45:06.551Z,-2.56
2023-03-29T01:47:47.835Z,-2.57
2023-03-29T01:50:36.313Z,-2.44
2023-03-29T01:53:24.814Z,-2.46
2023-03-29T01:56:00.519Z,-2.65
2023-03-29T01:58:29.500Z,-2.61
2023-03-29T02:00:56.215Z,-2.48
2023-03-29T02:03:24.600Z,-2.44
2023-03-29T02:05:51.572Z,-2.60
2023-03-29T02:08:18.320Z,-2.56
2023-03-29T02:10:45.055Z,-2.63
2023-03-29T02:13:11.769Z,-2.73
2023-03-29T02:15:38.677Z,-2.53
2023-03-29T02:18:06.698Z,-2.56
2023-03-29T02:20:39.210Z,-2.89
2023-03-29T02:23:23.482Z,-2.84
2023-03-29T02:25:50.741Z,-2.81
2023-03-29T02:28:17.748Z,-3.05
2023-03-29T02:30:53.566Z,-2.76
2023-03-29T02:33:54.232Z,-2.65
2023-03-29T02:36:28.180Z,-2.86
2023-03-29T02:38:54.894Z,-2.57
2023-03-29T02:41:22.454Z,-2.59
2023-03-29T02:43:49.179Z,-2.65
2023-03-29T02:46:16.156Z,-2.76
2023-03-29T02:48:42.890Z,-2.85
2023-03-29T02:51:18.014Z,-2.75
2023-03-29T02:54:03.209Z,-2.71
2023-03-29T02:56:29.981Z,-2.79
2023-03-29T02:58:56.576Z,-2.71
2023-03-29T03:01:23.325Z,-2.60
2023-03-29T03:03:50.844Z,-2.44
2023-03-29T03:06:18.371Z,-2.48
2023-03-29T03:08:45.058Z,-2.75
2023-03-29T03:11:11.728Z,-2.41
2023-03-29T03:13:38.415Z,-2.54
2023-03-29T03:16:05.443Z,-2.81
2023-03-29T03:18:32.670Z,-2.96
2023-03-29T03:21:01.878Z,-2.71
2023-03-29T03:23:29.573Z,-2.55
2023-03-29T03:25:56.594Z,-2.83
2023-03-29T03:28:27.446Z,-2.57
2023-03-29T03:30:54.390Z,-2.90
2023-03-29T03:33:21.357Z,-2.80
2023-03-29T03:35:48.084Z,-2.71
2023-03-29T03:38:15.277Z,-2.49
2023-03-29T03:40:42.641Z,-2.82
2023-03-29T03:43:09.391Z,-2.79
2023-03-29T03:45:36.094Z,-2.84
2023-03-29T03:48:02.869Z,-2.71
2023-03-29T03:50:29.630Z,-2.66
2023-03-29T03:52:56.473Z,-2.62
2023-03-29T03:55:24.009Z,-2.70
2023-03-29T03:57:52.025Z,-2.83
2023-03-29T04:00:22.885Z,-2.86
2023-03-29T04:02:50.782Z,-2.78
2023-03-29T04:05:17.536Z,-2.88
2023-03-29T04:07:44.319Z,-2.72
2023-03-29T04:10:11.171Z,-2.71
2023-03-29T04:12:38.124Z,-2.70
2023-03-29T04:15:05.313Z,-2.48
2023-03-29T04:17:32.070Z,-2.59
2023-03-29T04:19:58.766Z,-2.85
2023-03-29T04:22:25.775Z,-2.59
2023-03-29T04:24:52.519Z,-2.65
2023-03-29T04:27:19.261Z,-2.63
2023-03-29T04:29:46.416Z,-2.69
2023-03-29T04:32:13.095Z,-2.94
2023-03-29T04:34:39.843Z,-2.94
2023-03-29T04:37:10.684Z,-2.95
2023-03-29T04:39:37.771Z,-2.80
2023-03-29T04:42:05.270Z,-2.77
2023-03-29T04:44:35.111Z,-2.66
2023-03-29T04:47:01.776Z,-2.59
2023-03-29T04:49:29.076Z,-2.82
2023-03-29T04:51:55.976Z,-2.59
2023-03-29T04:54:22.734Z,-2.84
2023-03-29T04:56:49.781Z,-2.79
2023-03-29T04:59:16.464Z,-2.80
2023-03-29T05:01:43.191Z,-2.63
2023-03-29T05:04:12.547Z,-2.63
2023-03-29T05:06:40.106Z,-2.72
2023-03-29T05:09:07.345Z,-2.72
2023-03-29T05:11:34.053Z,-2.88
2023-03-29T05:14:03.272Z,-2.52
2023-03-29T05:16:30.312Z,-2.65
2023-03-29T05:18:57.518Z,-2.51
2023-03-29T05:21:26.213Z,-2.07
2023-03-29T05:23:53.296Z,-2.25
2023-03-29T05:26:20.275Z,-2.38
2023-03-29T05:28:47.059Z,-2.38
2023-03-29T05:31:16.675Z,-2.39
2023-03-29T05:33:43.999Z,-2.19
2023-03-29T05:36:13.641Z,-2.23
2023-03-29T05:38:41.158Z,-2.21
2023-03-29T05:41:08.306Z,-2.28
2023-03-29T05:43:35.072Z,-2.29
2023-03-29T05:46:01.798Z,-2.12
2023-03-29T05:48:28.840Z,-2.04
2023-03-29T05:50:56.365Z,-2.08
2023-03-29T05:53:24.012Z,-2.18
2023-03-29T05:55:51.430Z,-2.16
2023-03-29T05:58:20.281Z,-2.32
2023-03-29T06:00:49.582Z,-2.30
2023-03-29T06:03:21.548Z,-2.00
2023-03-29T06:05:50.021Z,-1.98
2023-03-29T06:08:16.861Z,-1.72
2023-03-29T06:10:43.818Z,-1.58
2023-03-29T06:13:10.947Z,-1.70
2023-03-29T06:15:37.963Z,-1.69
2023-03-29T06:18:04.741Z,-1.70
2023-03-29T06:20:31.775Z,-1.49
2023-03-29T06:22:58.469Z,-1.69
2023-03-29T06:25:25.138Z,-1.97
2023-03-29T06:27:52.240Z,-1.65
2023-03-29T06:30:19.349Z,-1.93
2023-03-29T06:32:46.390Z,-1.87
2023-03-29T06:35:13.137Z,-1.95
2023-03-29T06:37:41.241Z,-1.68
2023-03-29T06:40:09.434Z,-1.55
2023-03-29T06:42:36.088Z,-1.04
2023-03-29T06:45:04.085Z,-1.17
2023-03-29T06:47:31.672Z,-0.91
2023-03-29T06:49:58.350Z,-0.98
2023-03-29T06:52:25.021Z,-0.89
2023-03-29T06:54:51.822Z,-0.98
2023-03-29T06:57:18.834Z,-1.07
2023-03-29T06:59:46.564Z,-1.03
2023-03-29T07:02:13.272Z,-1.18
2023-03-29T07:04:41.803Z,-1.22
2023-03-29T07:07:19.730Z,-1.06
2023-03-29T07:09:54.164Z,-0.94
2023-03-29T07:12:22.581Z,-0.86
2023-03-29T07:14:49.270Z,-1.05
2023-03-29T07:17:16.724Z,-1.21
2023-03-29T07:19:43.537Z,-1.19
2023-03-29T07:22:11.268Z,-1.16
2023-03-29T07:24:38.022Z,-0.99
2023-03-29T07:27:05.299Z,-0.92
2023-03-29T07:29:32.301Z,-0.58
2023-03-29T07:31:59.093Z,-1.04
2023-03-29T07:34:25.902Z,-0.63
2023-03-29T07:36:52.611Z,-0.82
2023-03-29T07:39:19.254Z,-0.86
2023-03-29T07:41:46.008Z,-1.01
2023-03-29T07:44:12.604Z,-0.68
2023-03-29T07:46:39.254Z,-0.39
2023-03-29T07:49:07.520Z,-0.49
2023-03-29T07:51:36.623Z,-0.37
2023-03-29T07:54:03.290Z,0.11
2023-03-29T07:56:30.246Z,-0.11
2023-03-29T07:58:57.250Z,0.28
2023-03-29T08:01:24.848Z,0.10
2023-03-29T08:03:52.339Z,-0.13
2023-03-29T08:06:19.042Z,0.13
2023-03-29T08:08:46.261Z,-0.46
2023-03-29T08:11:12.920Z,-0.20
2023-03-29T08:13:39.522Z,-0.31
2023-03-29T08:16:06.782Z,0.08
2023-03-29T08:18:34.825Z,-0.08
2023-03-29T08:21:02.222Z,0.34
2023-03-29T08:23:30.201Z,0.20
2023-03-29T08:25:56.945Z,0.86
2023-03-29T08:28:24.376Z,0.88
2023-03-29T08:30:51.170Z,0.94
2023-03-29T08:33:18.030Z,0.28
2023-03-29T08:35:44.864Z,0.46
2023-03-29T08:38:12.581Z,0.92
2023-03-29T08:40:39.261Z,1.15
2023-03-29T08:43:28.582Z,1.22
2023-03-29T08:46:28.972Z,1.48
2023-03-29T08:49:02.650Z,1.02
2023-03-29T08:51:43.128Z,1.45
2023-03-29T08:54:15.794Z,1.31
2023-03-29T08:56:43.431Z,1.57
2023-03-29T08:59:26.677Z,1.74
2023-03-29T09:01:54.427Z,1.75
2023-03-29T09:04:25.388Z,1.66
2023-03-29T09:06:52.424Z,1.82
2023-03-29T09:09:20.965Z,1.86
2023-03-29T09:12:05.159Z,1.47
2023-03-29T09:14:47.372Z,1.61
2023-03-29T09:17:42.909Z,1.94
2023-03-29T09:20:32.245Z,2.20
2023-03-29T09:23:18.136Z,2.05
2023-03-29T09:26:12.537Z,2.42
2023-03-29T09:29:09.548Z,2.79
2023-03-29T09:31:39.041Z,2.53
2023-03-29T09:34:15.704Z,2.68
2023-03-29T09:36:48.662Z,2.46
2023-03-29T09:39:16.522Z,2.43
2023-03-29T09:42:08.188Z,3.02
2023-03-29T09:44:40.862Z,3.12
2023-03-29T09:47:19.291Z,3.20
2023-03-29T09:49:47.930Z,3.04
2023-03-29T09:52:15.331Z,2.89
2023-03-29T09:54:42.172Z,3.41
2023-03-29T09:57:16.537Z,3.53
2023-03-29T09:59:44.053Z,3.10
2023-03-29T10:02:12.864Z,3.81
2023-03-29T10:04:42.082Z,3.76
2023-03-29T10:07:20.767Z,3.74
2023-03-29T10:09:56.192Z,3.61
2023-03-29T10:12:23.120Z,3.51
2023-03-29T10:14:52.196Z,3.12
2023-03-29T10:17:25.391Z,3.57
2023-03-29T10:19:55.689Z,3.47
2023-03-29T10:22:27.298Z,4.27
2023-03-29T10:24:54.948Z,4.57
2023-03-29T10:27:27.075Z,4.18
2023-03-29T10:29:54.324Z,5.01
2023-03-29T10:32:34.321Z,4.56
2023-03-29T10:35:15.783Z,4.63
2023-03-29T10:37:43.175Z,4.67
2023-03-29T10:40:22.513Z,4.36
2023-03-29T10:42:50.304Z,4.33
2023-03-29T10:45:31.872Z,4.62
2023-03-29T10:47:58.802Z,4.51
2023-03-29T10:50:27.072Z,4.48
2023-03-29T10:52:53.880Z,4.24
2023-03-29T10:55:20.607Z,5.15
2023-03-29T10:58:16.323Z,5.50
2023-03-29T11:00:51.189Z,5.31
2023-03-29T11:03:40.665Z,4.99
2023-03-29T11:06:30.408Z,5.35
2023-03-29T11:09:02.052Z,4.78
2023-03-29T11:11:31.704Z,4.97
2023-03-29T11:14:55.642Z,4.89
2023-03-29T11:17:57.328Z,5.89
2023-03-29T11:20:45.843Z,5.71
2023-03-29T11:23:28.539Z,5.03
2023-03-29T11:26:14.087Z,5.66
2023-03-29T11:28:42.322Z,6.15
2023-03-29T11:31:44.288Z,5.72
2023-03-29T11:34:17.618Z,6.22
2023-03-29T11:36:51.769Z,5.67
2023-03-29T11:39:54.860Z,5.82
2023-03-29T11:42:24.255Z,6.20
2023-03-29T11:47:23.125Z,6.02
2023-03-29T11:50:14.675Z,6.25
2023-03-29T11:52:44.861Z,5.99
2023-03-29T11:55:18.962Z,6.09
2023-03-29T11:57:45.532Z,5.98
2023-03-29T12:00:19.703Z,5.59
2023-03-29T12:02:47.837Z,5.58
2023-03-29T12:05:28.073Z,6.16
2023-03-29T12:08:00.471Z,5.69
2023-03-29T12:10:31.314Z,5.59
2023-03-29T12:13:03.340Z,6.12
2023-03-29T12:15:32.087Z,6.31
2023-03-29T12:18:06.972Z,6.00
2023-03-29T12:20:38.945Z,5.93
2023-03-29T12:23:06.824Z,6.34
2023-03-29T12:25:38.236Z,6.35
2023-03-29T12:28:21.176Z,6.56
2023-03-29T12:31:15.044Z,7.05
2023-03-29T12:34:07.764Z,7.16
2023-03-29T12:36:45.321Z,7.21
2023-03-29T12:39:15.336Z,7.17
2023-03-29T12:41:44.977Z,6.63
2023-03-29T12:44:13.559Z,6.46
2023-03-29T12:46:40.235Z,6.74
2023-03-29T12:49:31.897Z,6.83
2023-03-29T12:51:59.289Z,6.50
2023-03-29T12:54:28.430Z,7.13
2023-03-29T12:57:00.640Z,6.77
2023-03-29T12:59:38.414Z,6.76
2023-03-29T13:02:14.149Z,6.83
2023-03-29T13:04:43.914Z,7.18
2023-03-29T13:07:32.077Z,7.27
2023-03-29T13:10:03.636Z,7.35
2023-03-29T13:12:43.188Z,7.42
2023-03-29T13:15:17.145Z,6.65
2023-03-29T13:18:11.701Z,7.01
2023-03-29T13:21:15.930Z,6.98
2023-03-29T13:23:45.884Z,7.13
2023-03-29T13:26:31.553Z,6.95
2023-03-29T13:29:20.392Z,7.16
2023-03-29T13:31:58.044Z,6.54
2023-03-29T13:34:43.240Z,6.71
2023-03-29T13:37:22.765Z,6.48
2023-03-29T13:39:51.760Z,6.56
2023-03-29T13:42:31.361Z,6.22
2023-03-29T13:45:23.555Z,6.29
2023-03-29T13:48:02.641Z,7.09
2023-03-29T13:50:40.703Z,7.10
2023-03-29T13:53:26.124Z,7.12
2023-03-29T13:55:53.321Z,7.85
2023-03-29T13:58:43.868Z,7.64
2023-03-29T14:01:29.261Z,6.82
2023-03-29T14:03:56.093Z,6.53
2023-03-29T14:06:27.582Z,6.79
2023-03-29T14:08:54.256Z,7.07
2023-03-29T14:11:28.547Z,6.42
2023-03-29T14:13:57.132Z,6.70
2023-03-29T14:16:23.987Z,6.80
2023-03-29T14:18:52.634Z,6.91
2023-03-29T14:21:19.664Z,7.11
2023-03-29T14:23:47.498Z,6.77
2023-03-29T14:26:22.146Z,7.02
2023-03-29T14:28:52.778Z,7.18
2023-03-29T14:31:20.444Z,7.83
2023-03-29T14:33:51.984Z,8.01
2023-03-29T14:36:18.780Z,8.04
2023-03-29T14:38:48.623Z,7.70
2023-03-29T14:41:15.357Z,7.26
2023-03-29T14:43:42.043Z,6.80
2023-03-29T14:46:08.711Z,7.29
2023-03-29T14:48:36.046Z,7.44
2023-03-29T14:51:02.775Z,6.74
2023-03-29T14:53:31.889Z,7.01
2023-03-29T14:55:58.607Z,7.41
2023-03-29T14:58:31.766Z,7.62
2023-03-29T15:00:58.902Z,6.88
2023-03-29T15:03:29.299Z,7.17
2023-03-29T15:06:01.283Z,7.39
2023-03-29T15:08:38.214Z,6.80
2023-03-29T15:11:34.861Z,7.26
2023-03-29T15:14:09.091Z,7.21
2023-03-29T15:16:42.014Z,6.98
2023-03-29T15:19:17.766Z,7.40
2023-03-29T15:21:44.541Z,7.66
2023-03-29T15:24:19.440Z,6.92
2023-03-29T15:26:46.201Z,7.28
2023-03-29T15:29:14.736Z,6.95
2023-03-29T15:31:41.881Z,6.78
2023-03-29T15:34:12.112Z,6.70
2023-03-29T15:36:48.271Z,6.91
2023-03-29T15:39:17.071Z,6.89
2023-03-29T15:41:44.208Z,6.98
2023-03-29T15:44:11.038Z,6.63
2023-03-29T15:46:37.934Z,6.52
2023-03-29T15:49:05.160Z,6.65
2023-03-29T15:51:31.994Z,6.49
2023-03-29T15:53:58.678Z,6.64
2023-03-29T15:56:26.701Z,6.71
2023-03-29T15:58:53.415Z,6.47
2023-03-29T16:01:39.669Z,6.08
2023-03-29T16:04:07.980Z,5.82
2023-03-29T16:06:34.803Z,5.50
2023-03-29T16:09:01.615Z,5.25
2023-03-29T16:11:28.474Z,5.12
2023-03-29T16:13:55.904Z,5.10
2023-03-29T16:16:22.651Z,4.88
2023-03-29T16:18:49.565Z,4.91
2023-03-29T16:21:20.829Z,4.96
2023-03-29T16:23:47.553Z,4.83
2023-03-29T16:26:14.968Z,4.98
2023-03-29T16:28:41.760Z,4.75
2023-03-29T16:31:11.185Z,4.63
2023-03-29T16:33:38.264Z,4.62
2023-03-29T16:36:05.617Z,4.63
2023-03-29T16:38:33.736Z,4.87
2023-03-29T16:41:00.634Z,4.69
2023-03-29T16:43:27.749Z,4.64
2023-03-29T16:45:54.578Z,4.69
2023-03-29T16:48:21.301Z,4.33
2023-03-29T16:50:51.114Z,4.41
2023-03-29T16:53:21.717Z,4.29
2023-03-29T16:55:49.317Z,4.27
2023-03-29T16:58:16.278Z,4.13
2023-03-29T17:00:45.683Z,4.28
2023-03-29T17:03:14.107Z,4.13
2023-03-29T17:05:41.733Z,4.20
2023-03-29T17:08:10.136Z,4.04
2023-03-29T17:10:39.621Z,3.93
2023-03-29T17:13:06.843Z,3.98
2023-03-29T17:15:33.876Z,3.96
2023-03-29T17:18:00.618Z,4.00
2023-03-29T17:20:27.423Z,4.01
2023-03-29T17:22:56.066Z,4.06
2023-03-29T17:25:23.285Z,4.31
2023-03-29T17:27:50.118Z,4.17
2023-03-29T17:30:17.034Z,4.13
2023-03-29T17:32:44.118Z,4.13
2023-03-29T17:35:10.826Z,3.80
2023-03-29T17:37:37.551Z,3.85
2023-03-29T17:40:12.566Z,3.74
2023-03-29T17:42:40.319Z,3.90
2023-03-29T17:45:08.111Z,3.89
2023-03-29T17:47:34.885Z,3.92
2023-03-29T17:50:01.461Z,3.80
2023-03-29T17:52:28.142Z,3.92
2023-03-29T17:54:54.853Z,3.66
2023-03-29T17:57:21.633Z,3.62
2023-03-29T17:59:48.251Z,3.83
2023-03-29T18:02:19.386Z,3.80
2023-03-29T18:04:46.168Z,3.85
2023-03-29T18:07:12.972Z,3.67
2023-03-29T18:09:39.855Z,3.82
2023-03-29T18:12:06.940Z,3.82
2023-03-29T18:14:34.011Z,3.94
2023-03-29T18:17:00.849Z,3.88
2023-03-29T18:19:27.706Z,3.90
2023-03-29T18:21:54.457Z,3.80
2023-03-29T18:24:21.305Z,3.70
2023-03-29T18:26:48.062Z,3.56
2023-03-29T18:29:15.060Z,3.68
2023-03-29T18:31:42.839Z,3.65
2023-03-29T18:34:09.672Z,3.38
2023-03-29T18:36:37.052Z,3.56
2023-03-29T18:39:06.705Z,3.47
2023-03-29T18:41:34.094Z,3.36
2023-03-29T18:44:00.981Z,3.45
2023-03-29T18:46:30.594Z,3.37
2023-03-29T18:49:01.208Z,3.32
2023-03-29T18:51:31.292Z,3.27
2023-03-29T18:53:58.041Z,3.49
2023-03-29T18:56:24.719Z,3.40
2023-03-29T18:58:51.817Z,3.24
2023-03-29T19:01:18.562Z,3.18
2023-03-29T19:03:45.454Z,3.23
2023-03-29T19:06:12.171Z,3.14
2023-03-29T19:08:41.208Z,3.19
2023-03-29T19:11:09.580Z,3.18
2023-03-29T19:13:36.445Z,3.11
2023-03-29T19:16:03.844Z,3.01
2023-03-29T19:18:30.994Z,3.13
2023-03-29T19:20:57.700Z,3.32
2023-03-29T19:23:28.385Z,3.28
2023-03-29T19:25:56.314Z,3.30
2023-03-29T19:28:23.304Z,3.21
2023-03-29T19:30:50.097Z,3.12
2023-03-29T19:33:17.111Z,3.25
2023-03-29T19:35:43.995Z,3.18
2023-03-29T19:38:10.955Z,3.12
2023-03-29T19:40:37.616Z,3.05
2023-03-29T19:43:04.463Z,3.01
2023-03-29T19:45:31.220Z,2.89
2023-03-29T19:47:58.349Z,2.78
2023-03-29T19:50:26.303Z,2.90
2023-03-29T19:52:57.125Z,3.03
2023-03-29T19:55:23.825Z,3.02
2023-03-29T19:57:50.513Z,3.00
2023-03-29T20:00:18.773Z,3.14
2023-03-29T20:02:45.491Z,3.27
2023-03-29T20:05:12.560Z,3.32
2023-03-29T20:07:39.276Z,3.06
2023-03-29T20:10:06.383Z,3.00
2023-03-29T20:12:33.123Z,3.06
2023-03-29T20:14:59.797Z,2.95
2023-03-29T20:17:26.961Z,2.93
2023-03-29T20:19:53.934Z,3.02
2023-03-29T20:22:20.637Z,3.10
2023-03-29T20:24:47.295Z,2.88
2023-03-29T20:27:15.795Z,2.77
2023-03-29T20:29:42.819Z,2.94
2023-03-29T20:32:09.462Z,2.91
2023-03-29T20:34:36.264Z,2.93
2023-03-29T20:37:03.693Z,2.84
2023-03-29T20:39:31.414Z,2.86
2023-03-29T20:41:59.071Z,3.06
2023-03-29T20:44:28.923Z,2.96
2023-03-29T20:47:06.749Z,3.00
2023-03-29T20:49:37.509Z,3.16
2023-03-29T20:52:10.658Z,3.04
2023-03-29T20:54:37.528Z,3.14
2023-03-29T20:57:07.958Z,3.28
2023-03-29T20:59:34.781Z,3.12
2023-03-29T21:02:02.561Z,3.27
2023-03-29T21:04:29.263Z,3.20
2023-03-29T21:06:57.105Z,3.13
2023-03-29T21:09:23.844Z,3.11
2023-03-29T21:11:50.836Z,3.27
2023-03-29T21:14:19.617Z,3.21
2023-03-29T21:16:47.421Z,3.25
2023-03-29T21:19:14.983Z,3.28
2023-03-29T21:21:42.733Z,3.24
2023-03-29T21:24:10.755Z,3.17
2023-03-29T21:26:37.431Z,3.26
2023-03-29T21:29:04.099Z,3.16
2023-03-29T21:31:30.886Z,3.29
2023-03-29T21:33:57.890Z,3.23
2023-03-29T21:36:24.556Z,3.24
2023-03-29T21:38:51.548Z,3.17
2023-03-29T21:41:18.429Z,3.02
2023-03-29T21:43:45.109Z,3.02
2023-03-29T21:46:11.961Z,3.04
2023-03-29T21:48:38.753Z,3.08
2023-03-29T21:51:05.917Z,3.12
2023-03-29T21:53:32.824Z,3.18
2023-03-29T21:55:59.419Z,3.18
2023-03-29T21:58:26.262Z,3.19
2023-03-29T22:00:53.188Z,3.12
2023-03-29T22:03:19.877Z,3.13
2023-03-29T22:06:00.613Z,3.21
2023-03-29T22:08:27.299Z,3.11
2023-03-29T22:10:57.818Z,3.24
2023-03-29T22:13:24.910Z,3.28
2023-03-29T22:15:59.141Z,3.16
2023-03-29T22:18:28.045Z,2.98
2023-03-29T22:20:54.775Z,3.07
2023-03-29T22:23:21.492Z,3.06
2023-03-29T22:25:48.356Z,3.13
2023-03-29T22:28:15.005Z,3.30
2023-03-29T22:30:41.938Z,3.25
2023-03-29T22:33:08.662Z,3.25
2023-03-29T22:35:35.645Z,3.13
2023-03-29T22:38:02.268Z,3.12
2023-03-29T22:40:30.836Z,3.14
2023-03-29T22:42:57.499Z,3.23
2023-03-29T22:45:24.131Z,3.22
2023-03-29T22:47:50.972Z,3.24
2023-03-29T22:50:17.730Z,3.26
2023-03-29T22:52:44.368Z,3.23
2023-03-29T22:55:11.232Z,3.16
2023-03-29T22:57:37.967Z,3.12
2023-03-29T23:00:09.117Z,3.21
2023-03-29T23:02:36.863Z,3.11
2023-03-29T23:05:03.605Z,3.16
2023-03-29T23:07:30.325Z,3.13
2023-03-29T23:09:57.008Z,3.18
2023-03-29T23:12:24.249Z,3.21
2023-03-29T23:14:53.121Z,3.42
2023-03-29T23:17:20.558Z,3.22
2023-03-29T23:19:47.926Z,3.22
2023-03-29T23:22:14.525Z,3.25
2023-03-29T23:24:43.441Z,3.20
2023-03-29T23:27:10.050Z,3.28
2023-03-29T23:29:38.160Z,3.17
2023-03-29T23:32:04.872Z,3.10
2023-03-29T23:34:31.613Z,3.09
2023-03-29T23:36:58.658Z,3.08
2023-03-29T23:39:25.416Z,3.02
2023-03-29T23:41:52.378Z,3.10
2023-03-29T23:44:19.026Z,3.23
2023-03-29T23:46:45.783Z,3.02
2023-03-29T23:49:12.570Z,3.08
2023-03-29T23:51:39.324Z,3.08
2023-03-29T23:54:06.341Z,3.00
2023-03-29T23:56:33.371Z,3.07
2023-03-29T23:59:00.015Z,2.98
